Latest Weather Observations for Camden

IDN60901

Issued at 5:11 pm EST Saturday 29 August 2015 (issued every 10 minutes, with the page automatically refreshed every 10 minutes)

About weather observations | Map of Sydney area stations | Latest observations for Sydney area | Other Formats
Station Details ID: 068192 Name: CAMDEN AIRPORT AWS Lat: -34.04 Lon: 150.69 Height: 73.9 m
Data from the previous 72 hours. | See also: Recent months at Camden
Date/Time
EST
Tmp

°C
App
Tmp
°C
Dew
Point
°C
Rel
Hum
%
Delta-T

°C
Wind Press
QNH
hPa
Press
MSL
hPa
Rain
since
9 am
mm
Dir
 
Spd
km/h
Gust
km/h
Spd
kts
Gust
kts
29/05:00pm 16.5 11.8 1.0 35 6.8 WSW 15 20 8 11 1018.2 1018.2 0.0
29/04:30pm 17.0 11.4 1.4 35 6.9 WSW 20 28 11 15 1018.1 1018.1 0.0
29/04:00pm 17.7 11.3 1.2 33 7.3 WSW 24 33 13 18 1018.2 1018.2 0.0
29/03:30pm 18.5 13.3 2.4 34 7.4 WSW 19 24 10 13 1018.0 1018.0 0.0
29/03:00pm 18.3 12.1 2.2 34 7.3 WSW 24 33 13 18 1018.1 1018.1 0.0
29/02:30pm 18.5 12.3 1.9 33 7.5 WSW 24 33 13 18 1018.1 1018.1 0.0
29/02:00pm 18.7 14.3 2.5 34 7.5 WSW 15 26 8 14 1018.5 1018.5 0.0
29/01:30pm 18.7 14.3 2.9 35 7.3 WNW 15 28 8 15 1018.9 1018.9 0.0
29/01:00pm 18.1 14.2 3.6 38 6.8 N 13 19 7 10 1019.2 1019.2 0.0
29/12:30pm 18.2 15.4 5.1 42 6.3 N 9 20 5 11 1019.9 1019.9 0.0
29/12:00pm 17.3 14.4 4.6 43 6.0 NNW 9 13 5 7 1020.6 1020.7 0.0
29/11:30am 16.4 13.0 4.1 44 5.8 NNW 11 15 6 8 1021.0 1021.1 0.0
29/11:00am 17.1 14.7 5.4 46 5.6 NW 7 15 4 8 1021.5 1021.6 0.0
29/10:30am 16.1 14.0 6.0 51 4.9 NE 6 9 3 5 1021.7 1021.8 0.0
29/10:00am 15.3 13.3 6.1 54 4.4 WSW 6 11 3 6 1021.9 1022.0 0.0
29/09:30am 13.7 11.6 6.8 63 3.3 N 7 9 4 5 1022.2 1022.3 0.0
29/09:00am 11.5 10.7 6.6 72 2.3 CALM 0 4 0 2 1022.5 1022.6 0.0
29/08:30am 9.8 9.0 6.5 80 1.5 CALM 0 0 0 0 1022.8 1022.9 0.0
29/08:00am 8.3 7.7 7.5 95 0.4 CALM 0 0 0 0 1022.9 1023.0 0.0
29/07:30am 5.9 4.9 5.8 99 0.0 CALM 0 0 0 0 1022.8 1022.9 0.0
29/07:27am 5.6 4.6 5.5 99 0.0 CALM 0 0 0 0 1022.8 1022.9 0.0
29/07:15am 4.5 3.3 4.4 99 0.0 CALM 0 0 0 0 1022.7 1022.8 0.0
29/07:03am 4.2 2.9 4.1 99 0.0 CALM 0 0 0 0 1022.7 1022.8 0.0
29/07:01am 4.2 2.9 4.1 99 0.0 CALM 0 0 0 0 1022.7 1022.8 0.0
29/07:00am 4.2 2.9 4.1 99 0.0 CALM 0 0 0 0 1022.7 1022.8 0.0
29/06:53am 3.8 2.4 3.7 99 0.0 CALM 0 0 0 0 1022.6 1022.7 0.0
29/06:30am 3.2 1.7 3.1 99 0.0 CALM 0 0 0 0 1022.6 1022.7 0.0
29/06:28am 3.2 1.7 3.1 99 0.0 CALM 0 0 0 0 1022.6 1022.7 0.0
29/06:21am 3.2 1.7 3.1 99 0.0 CALM 0 0 0 0 1022.6 1022.7 0.0
29/06:02am 4.2 2.9 4.1 99 0.0 CALM 0 0 0 0 1022.2 1022.3 0.0
29/06:01am 4.2 2.9 4.1 99 0.0 CALM 0 0 0 0 1022.2 1022.3 0.0
29/06:00am 4.3 3.0 4.2 99 0.0 CALM 0 0 0 0 1022.2 1022.3 0.0
29/05:47am 4.2 2.9 4.1 99 0.0 CALM 0 0 0 0 1022.1 1022.2 0.0
29/05:40am 3.9 2.5 3.8 99 0.0 CALM 0 0 0 0 1022.1 1022.2 0.0
29/05:30am 4.2 2.5 4.1 99 0.0 N 2 7 1 4 1022.0 1022.1 0.0
29/05:24am 3.8 1.3 3.7 99 0.0 N 6 9 3 5 1021.9 1022.0 0.0
29/05:00am 4.1 2.7 3.8 98 0.1 CALM 0 0 0 0 1022.1 1022.2 0.0
29/04:44am 4.1 2.7 3.8 98 0.1 CALM 0 0 0 0 1022.1 1022.2 0.0
29/04:42am 4.2 2.9 3.9 98 0.1 CALM 0 0 0 0 1022.0 1022.1 0.0
29/04:30am 4.5 3.2 4.2 98 0.1 CALM 0 0 0 0 1022.0 1022.1 0.0
29/04:00am 4.9 3.7 4.6 98 0.1 CALM 0 0 0 0 1021.9 1022.0 0.0
29/03:50am 5.0 3.8 4.7 98 0.1 CALM 0 0 0 0 1021.9 1022.0 0.0
29/03:34am 5.2 4.1 4.9 98 0.1 CALM 0 0 0 0 1022.0 1022.1 0.0
29/03:30am 5.4 4.3 5.1 98 0.1 CALM 0 0 0 0 1022.0 1022.1 0.0
29/03:16am 5.3 4.2 4.9 97 0.2 CALM 0 0 0 0 1022.0 1022.1 0.0
29/03:00am 5.9 4.9 5.5 97 0.2 CALM 0 0 0 0 1022.2 1022.3 0.0
29/02:45am 5.9 4.8 5.3 96 0.3 CALM 0 0 0 0 1022.4 1022.5 0.0
29/02:30am 6.0 5.0 5.4 96 0.3 CALM 0 0 0 0 1022.5 1022.6 0.0
29/02:00am 6.5 4.4 5.8 95 0.3 SSW 6 6 3 3 1022.7 1022.8 0.0
29/01:30am 6.3 5.3 5.4 94 0.4 CALM 0 6 0 3 1022.9 1023.0 0.0
29/01:00am 6.8 5.8 5.6 92 0.5 CALM 0 0 0 0 1023.0 1023.1 0.0
29/12:30am 7.6 6.7 6.1 90 0.7 CALM 0 0 0 0 1022.9 1023.0 0.0
29/12:00am 7.4 5.9 5.2 86 1.0 NW 2 7 1 4 1023.0 1023.1 0.0
 
Date/Time
EST
Tmp

°C
App
Tmp
°C
Dew
Point
°C
Rel
Hum
%
Delta-T

°C
Wind Press
QNH
hPa
Press
MSL
hPa
Rain
since
9 am
mm
Dir
 
Spd
km/h
Gust
km/h
Spd
kts
Gust
kts
28/11:30pm 8.6 7.7 6.1 84 1.1 CALM 0 0 0 0 1023.1 1023.2 0.0
28/11:00pm 9.5 8.6 6.0 79 1.6 CALM 0 0 0 0 1023.1 1023.2 0.0
28/10:30pm 9.4 7.8 6.3 81 1.4 N 4 7 2 4 1023.1 1023.2 0.0
28/10:00pm 9.1 7.0 5.7 79 1.5 NNW 6 7 3 4 1023.1 1023.2 0.0
28/09:30pm 10.1 9.3 6.6 79 1.6 CALM 0 0 0 0 1023.0 1023.1 0.0
28/09:00pm 11.9 9.8 6.0 67 2.8 SW 6 9 3 5 1022.8 1022.9 0.0
28/08:30pm 13.2 10.5 5.6 60 3.6 SW 9 13 5 7 1022.5 1022.6 0.0
28/08:00pm 13.4 11.3 5.8 60 3.6 SSW 6 9 3 5 1022.3 1022.4 0.0
28/07:30pm 13.9 11.6 5.5 57 4.0 SW 7 13 4 7 1022.0 1022.1 0.0
28/07:00pm 14.3 12.2 5.9 57 4.0 SSE 6 13 3 7 1021.7 1021.8 0.0
28/06:30pm 14.4 12.3 6.0 57 4.0 W 6 9 3 5 1021.2 1021.3 0.0
28/06:00pm 15.0 12.4 6.0 55 4.3 WSW 9 11 5 6 1020.7 1020.8 0.0
28/05:30pm 15.8 13.1 5.7 51 4.9 W 9 15 5 8 1020.3 1020.4 0.0
28/05:00pm 17.7 14.7 5.9 46 5.8 WNW 11 15 6 8 1020.0 1020.0 0.0
28/04:30pm 18.3 13.9 4.8 41 6.5 W 17 26 9 14 1019.7 1019.7 0.0
28/04:00pm 17.8 13.9 5.4 44 6.0 WSW 15 20 8 11 1019.4 1019.4 0.0
28/03:30pm 18.0 13.7 5.2 43 6.2 WSW 17 26 9 14 1019.3 1019.3 0.0
28/03:00pm 18.0 14.7 4.6 41 6.4 SSW 11 17 6 9 1019.0 1019.0 0.0
28/02:30pm 18.1 13.5 3.9 39 6.7 SSW 17 26 9 14 1018.9 1018.9 0.0
28/02:00pm 18.3 13.9 4.8 41 6.5 SSW 17 26 9 14 1018.9 1018.9 0.0
28/01:30pm 18.6 13.7 5.1 41 6.6 WSW 20 32 11 17 1018.9 1018.9 0.0
28/01:00pm 18.7 13.3 4.5 39 6.8 SSW 22 32 12 17 1019.0 1019.0 0.0
28/12:30pm 19.4 15.3 6.2 42 6.6 WSW 17 26 9 14 1019.2 1019.2 0.0
28/12:00pm 18.7 14.2 5.9 43 6.3 WSW 19 28 10 15 1019.7 1019.7 0.0
28/11:30am 17.8 12.9 5.1 43 6.1 WSW 20 32 11 17 1020.1 1020.1 0.0
28/11:00am 17.3 12.6 5.3 45 5.8 W 19 26 10 14 1020.1 1020.1 0.0
28/10:30am 16.3 11.9 5.0 47 5.4 W 17 30 9 16 1020.0 1020.0 0.0
28/10:00am 16.1 10.8 4.8 47 5.3 WSW 22 35 12 19 1020.1 1020.1 0.0
28/09:30am 14.8 8.6 4.2 49 4.9 SW 26 35 14 19 1020.3 1020.4 0.0
28/09:00am 14.4 9.0 4.4 51 4.6 WSW 22 32 12 17 1020.1 1020.1 0.0
28/08:30am 14.3 8.2 4.9 53 4.4 WSW 26 41 14 22 1019.7 1019.7 0.0
28/08:00am 13.5 8.7 4.6 55 4.1 WSW 19 28 10 15 1019.2 1019.2 0.0
28/07:30am 12.6 8.5 4.3 57 3.8 W 15 26 8 14 1018.9 1018.9 0.0
28/07:00am 11.0 8.4 4.0 62 3.1 W 7 11 4 6 1018.6 1018.6 0.0
28/06:30am 10.5 6.7 4.0 64 2.9 W 13 20 7 11 1018.1 1018.1 0.0
28/06:00am 10.5 7.8 3.5 62 3.1 W 7 11 4 6 1018.0 1018.0 0.0
28/05:30am 10.9 8.8 3.7 61 3.2 W 4 15 2 8 1017.7 1017.7 0.0
28/05:00am 11.0 7.2 4.0 62 3.1 W 13 20 7 11 1017.3 1017.3 0.0
28/04:30am 11.7 6.8 4.2 60 3.4 WSW 19 28 10 15 1017.1 1017.1 0.0
28/04:00am 11.4 6.1 4.8 64 3.0 W 22 39 12 21 1016.6 1016.6 0.0
28/03:30am 10.5 6.4 4.4 66 2.7 WNW 15 20 8 11 1016.8 1016.8 0.0
28/03:00am 9.8 5.9 5.2 73 2.1 W 15 24 8 13 1016.9 1016.9 0.0
28/02:30am 7.2 4.1 3.8 79 1.5 NW 9 13 5 7 1017.1 1017.1 0.0
28/02:00am 8.9 6.3 4.1 72 2.1 WNW 7 9 4 5 1017.1 1017.1 0.0
28/01:30am 10.1 7.5 4.3 67 2.6 NW 7 11 4 6 1017.5 1017.5 0.0
28/01:00am 11.0 8.1 4.5 64 2.9 WSW 9 13 5 7 1018.0 1018.0 0.0
28/12:30am 11.4 9.4 4.2 61 3.2 NW 4 13 2 7 1017.8 1017.8 0.0
28/12:00am 11.0 8.0 4.0 62 3.1 WSW 9 13 5 7 1018.0 1018.0 0.0
 
Date/Time
EST
Tmp

°C
App
Tmp
°C
Dew
Point
°C
Rel
Hum
%
Delta-T

°C
Wind Press
QNH
hPa
Press
MSL
hPa
Rain
since
9 am
mm
Dir
 
Spd
km/h
Gust
km/h
Spd
kts
Gust
kts
27/11:30pm 11.8 8.5 4.8 62 3.2 SW 11 26 6 14 1018.2 1018.2 0.0
27/11:00pm 10.6 9.0 4.7 67 2.7 SSE 2 7 1 4 1018.0 1018.0 0.0
27/10:30pm 10.1 7.2 4.5 68 2.5 WSW 9 11 5 6 1018.1 1018.1 0.0
27/10:00pm 10.1 7.7 4.3 67 2.6 SW 6 11 3 6 1017.9 1017.9 0.0
27/09:30pm 11.0 9.9 5.1 67 2.7 CALM 0 13 0 7 1017.9 1017.9 0.0
27/09:00pm 11.6 8.5 5.5 66 2.8 W 11 20 6 11 1017.9 1017.9 0.0
27/08:30pm 10.6 9.2 5.4 70 2.4 N 2 11 1 6 1017.7 1017.7 0.0
27/08:00pm 12.1 9.3 5.0 62 3.3 NW 9 15 5 8 1017.6 1017.6 0.0
27/07:30pm 12.9 10.3 6.3 64 3.1 WNW 9 13 5 7 1017.6 1017.6 0.0
27/07:00pm 14.0 10.7 6.4 60 3.7 WNW 13 17 7 9 1017.1 1017.1 0.0
27/06:30pm 14.1 12.0 6.7 61 3.6 WNW 7 9 4 5 1017.0 1017.0 0.0
27/06:00pm 14.7 10.9 6.0 56 4.2 W 15 22 8 12 1017.0 1017.0 0.0
27/05:30pm 15.2 10.1 6.2 55 4.4 W 22 30 12 16 1016.6 1016.6 0.0
27/05:00pm 15.2 9.1 8.2 63 3.5 W 30 46 16 25 1016.1 1016.1 0.0
27/04:49pm 17.0 12.8 7.4 53 4.8 WSW 19 43 10 23 1015.6 1015.6 0.0
27/04:30pm 17.9 13.8 6.4 47 5.7 WSW 17 20 9 11 1015.1 1015.2 0.0
27/04:00pm 18.7 15.6 7.2 47 5.8 WSW 13 19 7 10 1014.9 1015.0 0.0
27/03:30pm 21.0 17.1 6.9 40 7.2 NNW 17 20 9 11 1014.8 1014.9 0.0
27/03:00pm 19.8 15.9 6.9 43 6.5 NNW 17 20 9 11 1014.8 1014.9 0.0
27/02:30pm 19.3 15.2 8.0 48 5.8 NNW 19 24 10 13 1015.2 1015.3 0.0
27/02:00pm 19.5 16.1 9.1 51 5.5 NW 17 20 9 11 1015.5 1015.5 0.0
27/01:30pm 19.5 16.5 7.9 47 6.0 NW 13 20 7 11 1015.6 1015.6 0.0
27/01:00pm 21.1 16.0 7.7 42 6.9 NNW 24 30 13 16 1016.1 1016.1 0.0
27/12:30pm 19.5 18.3 11.5 60 4.4 N 9 15 5 8 1016.6 1016.6 0.0
27/12:00pm 18.4 17.7 11.9 66 3.6 N 7 11 4 6 1016.9 1016.9 0.0
27/11:30am 17.5 16.8 12.0 70 3.0 NNE 7 11 4 6 1017.7 1017.7 0.0
27/11:00am 17.0 17.8 12.5 75 2.5 CALM 0 6 0 3 1018.1 1018.1 0.0
27/10:30am 14.1 13.6 12.8 92 0.7 S 7 9 4 5 1018.4 1018.4 0.0
27/10:00am 13.2 12.9 12.7 97 0.3 SSW 6 6 3 3 1019.1 1019.1 0.0
27/09:30am 12.7 13.5 12.5 99 0.1 CALM 0 0 0 0 1019.3 1019.3 0.0
27/09:00am 12.2 12.8 12.0 99 0.1 CALM 0 0 0 0 1019.6 1019.6 0.4
27/08:30am 12.0 12.6 11.8 99 0.1 CALM 0 0 0 0 1019.8 1019.8 0.4
27/08:00am 11.1 11.4 10.9 99 0.1 CALM 0 0 0 0 1019.8 1019.8 0.4
27/07:30am 10.5 10.6 10.3 99 0.1 CALM 0 0 0 0 1019.6 1019.6 0.4
27/07:00am 10.1 8.8 9.9 99 0.1 SSE 7 9 4 5 1018.9 1018.9 0.4
27/06:30am 10.1 10.1 9.9 99 0.1 CALM 0 0 0 0 1019.5 1019.5 0.4
27/06:00am 10.0 10.0 9.9 99 0.1 CALM 0 0 0 0 1019.4 1019.4 0.4
27/05:30am 9.9 8.8 9.8 99 0.1 NW 6 7 3 4 1019.6 1019.6 0.4
27/05:00am 9.8 8.4 9.7 99 0.1 ESE 7 11 4 6 1019.1 1019.1 0.4
27/04:30am 9.1 8.9 9.0 99 0.0 CALM 0 0 0 0 1018.9 1018.9 0.4
27/04:06am 8.8 8.5 8.7 99 0.0 CALM 0 0 0 0 1019.0 1019.0 0.4
27/04:00am 8.6 8.3 8.5 99 0.0 CALM 0 0 0 0 1019.0 1019.0 0.4
27/03:42am 8.4 8.0 8.3 99 0.0 CALM 0 0 0 0 1018.9 1018.9 0.4
27/03:39am 8.4 8.0 8.3 99 0.0 CALM 0 0 0 0 1019.0 1019.0 0.4
27/03:30am 8.2 7.8 8.1 99 0.0 CALM 0 0 0 0 1019.3 1019.3 0.4
27/03:00am 8.6 8.3 8.5 99 0.0 CALM 0 0 0 0 1019.0 1019.0 0.4
27/02:30am 8.9 8.6 8.8 99 0.0 CALM 0 0 0 0 1019.3 1019.3 0.4
27/02:00am 8.8 7.4 8.7 99 0.0 S 6 7 3 4 1019.5 1019.5 0.4
27/01:50am 8.8 8.1 8.7 99 0.0 WSW 2 6 1 3 1019.7 1019.7 0.4
27/01:30am 8.9 8.3 8.8 99 0.0 NNW 2 6 1 3 1019.5 1019.5 0.4
27/01:08am 9.4 7.9 9.3 99 0.0 ESE 7 11 4 6 1019.8 1019.8 0.4
27/01:02am 9.4 8.9 9.3 99 0.0 NNW 2 9 1 5 1019.9 1019.9 0.4
27/01:00am 9.8 9.8 9.7 99 0.1 CALM 0 0 0 0 1020.0 1020.0 0.4
27/12:30am 9.8 9.8 9.7 99 0.1 CALM 0 0 0 0 1020.2 1020.2 0.4
27/12:00am 10.6 10.8 10.4 99 0.1 CALM 0 0 0 0 1020.1 1020.1 0.4
 
Date/Time
EST
Tmp

°C
App
Tmp
°C
Dew
Point
°C
Rel
Hum
%
Delta-T

°C
Wind Press
QNH
hPa
Press
MSL
hPa
Rain
since
9 am
mm
Dir
 
Spd
km/h
Gust
km/h
Spd
kts
Gust
kts
26/11:30pm 10.6 10.8 10.4 99 0.1 CALM 0 0 0 0 1020.6 1020.7 0.4
26/11:13pm 11.7 12.2 11.5 99 0.1 CALM 0 0 0 0 1020.9 1021.0 0.4
26/11:03pm 11.8 12.3 11.6 99 0.1 CALM 0 0 0 0 1020.9 1021.0 0.4
26/11:00pm 11.8 12.3 11.6 99 0.1 CALM 0 0 0 0 1020.9 1021.0 0.4
26/10:52pm 11.3 11.6 11.0 98 0.2 CALM 0 0 0 0 1021.0 1021.1 0.4
26/10:43pm 11.8 12.3 11.6 99 0.1 CALM 0 0 0 0 1021.0 1021.1 0.4
26/10:30pm 12.2 12.8 12.0 99 0.1 CALM 0 0 0 0 1021.0 1021.1 0.4
26/10:00pm 12.3 12.9 11.8 97 0.3 CALM 0 0 0 0 1021.3 1021.4 0.4
26/09:30pm 13.1 13.9 12.6 97 0.3 CALM 0 0 0 0 1021.2 1021.3 0.4
26/09:00pm 12.8 13.4 12.0 95 0.4 CALM 0 0 0 0 1021.5 1021.6 0.4
26/08:30pm 13.4 13.1 12.6 95 0.4 S 6 11 3 6 1021.3 1021.4 0.4
26/08:00pm 13.5 12.9 12.4 93 0.6 SSW 7 11 4 6 1020.9 1021.0 0.4
26/07:30pm 13.9 12.6 12.5 91 0.8 SW 11 17 6 9 1021.0 1021.1 0.4
26/07:00pm 14.7 13.7 12.4 86 1.3 WSW 9 13 5 7 1021.1 1021.2 0.4
26/06:30pm 14.8 13.5 12.5 86 1.3 SW 11 15 6 8 1020.5 1020.6 0.4
26/06:00pm 14.7 12.9 12.0 84 1.5 WSW 13 15 7 8 1020.0 1020.0 0.4
26/05:30pm 15.2 14.1 11.8 80 1.8 SW 9 13 5 7 1019.8 1019.8 0.4

Latest Capital City Observations: Canberra | Sydney | Melbourne | Brisbane | Adelaide | Perth | Hobart | Darwin

Other Formats:

Comma delimited format used in spreadsheet applications
http://www.bom.gov.au/fwo/IDN60901/IDN60901.94755.axf

JavaScript Object Notation format (JSON) in row-major order
http://www.bom.gov.au/fwo/IDN60901/IDN60901.94755.json